Leland, Iowa
Current Conditions -  °F | °C
As of 8:15 AM on Monday 26 Jan 2015 (Local Time) from KFXY Reporting Station
Overcast Overcast  
Wind Chill: 25°   Ceiling: 1000
Heat Index: 32°   Visibility: 7mi
Dew Point: 32°   Wind: 8mph
Humidity: 100%   Direction: 230°SW
Pressure: 29.77"   Gusts: NA
Location:  43.34°N, 93.64°W
Report Text: KFXY 261415Z AUTO 23007KT 7SM OVC010 00/00 A2977 RMK AO2
Loading
Personal Weather Stations






























Interactive Weather Map New forecast layout! Learn more

10-Day Weather Forecast

Advertisements
Track Severe Weather on mobile